sensor_id;sensor_type;location;lat;lon;timestamp;pressure;altitude;pressure_sealevel;temperature;humidity
71907;BME280;59781;52.090;5.030;2023-07-22T00:01:25;101403.81;;;14.20;100.00
71907;BME280;59781;52.090;5.030;2023-07-22T00:03:51;101405.56;;;14.13;100.00
71907;BME280;59781;52.090;5.030;2023-07-22T00:06:16;101399.91;;;14.22;100.00
71907;BME280;59781;52.090;5.030;2023-07-22T00:08:42;101393.22;;;14.10;100.00
71907;BME280;59781;52.090;5.030;2023-07-22T00:11:08;101397.13;;;14.30;100.00
71907;BME280;59781;52.090;5.030;2023-07-22T00:13:34;101398.84;;;14.09;100.00
71907;BME280;59781;52.090;5.030;2023-07-22T00:16:00;101396.22;;;14.15;100.00
71907;BME280;59781;52.090;5.030;2023-07-22T00:18:27;101393.16;;;13.95;100.00
71907;BME280;59781;52.090;5.030;2023-07-22T00:20:54;101393.53;;;13.92;100.00
71907;BME280;59781;52.090;5.030;2023-07-22T00:23:20;101390.56;;;14.25;100.00
71907;BME280;59781;52.090;5.030;2023-07-22T00:25:46;101390.16;;;14.13;100.00
71907;BME280;59781;52.090;5.030;2023-07-22T00:28:13;101383.06;;;14.12;100.00
71907;BME280;59781;52.090;5.030;2023-07-22T00:30:39;101384.75;;;14.13;100.00
71907;BME280;59781;52.090;5.030;2023-07-22T00:33:05;101378.28;;;14.14;100.00
71907;BME280;59781;52.090;5.030;2023-07-22T00:35:31;101379.56;;;14.03;100.00
71907;BME280;59781;52.090;5.030;2023-07-22T00:37:59;101391.28;;;13.96;100.00
71907;BME280;59781;52.090;5.030;2023-07-22T00:40:25;101377.09;;;13.94;100.00
71907;BME280;59781;52.090;5.030;2023-07-22T00:42:51;101376.75;;;13.97;100.00
71907;BME280;59781;52.090;5.030;2023-07-22T00:45:17;101378.97;;;13.93;100.00
71907;BME280;59781;52.090;5.030;2023-07-22T00:47:44;101379.44;;;13.74;100.00
71907;BME280;59781;52.090;5.030;2023-07-22T00:50:10;101377.47;;;13.91;100.00
71907;BME280;59781;52.090;5.030;2023-07-22T00:52:37;101377.97;;;13.86;100.00
71907;BME280;59781;52.090;5.030;2023-07-22T00:55:05;101372.97;;;13.75;100.00
71907;BME280;59781;52.090;5.030;2023-07-22T00:57:31;101364.22;;;13.73;100.00
71907;BME280;59781;52.090;5.030;2023-07-22T00:59:57;101371.31;;;13.74;100.00
71907;BME280;59781;52.090;5.030;2023-07-22T01:02:22;101372.56;;;13.63;100.00
71907;BME280;59781;52.090;5.030;2023-07-22T01:04:49;101369.88;;;13.55;100.00
71907;BME280;59781;52.090;5.030;2023-07-22T01:07:18;101364.75;;;13.68;100.00
71907;BME280;59781;52.090;5.030;2023-07-22T01:09:44;101360.13;;;13.77;100.00
71907;BME280;59781;52.090;5.030;2023-07-22T01:12:11;101357.06;;;13.80;100.00
71907;BME280;59781;52.090;5.030;2023-07-22T01:14:39;101348.81;;;13.73;100.00
71907;BME280;59781;52.090;5.030;2023-07-22T01:17:09;101351.50;;;13.73;100.00
71907;BME280;59781;52.090;5.030;2023-07-22T01:19:36;101353.66;;;13.55;100.00
71907;BME280;59781;52.090;5.030;2023-07-22T01:22:04;101353.69;;;13.78;100.00
71907;BME280;59781;52.090;5.030;2023-07-22T01:24:33;101353.59;;;13.63;100.00
71907;BME280;59781;52.090;5.030;2023-07-22T01:26:59;101353.47;;;13.57;100.00
71907;BME280;59781;52.090;5.030;2023-07-22T01:29:25;101349.47;;;13.44;100.00
71907;BME280;59781;52.090;5.030;2023-07-22T01:31:54;101343.41;;;13.42;100.00
71907;BME280;59781;52.090;5.030;2023-07-22T01:34:22;101348.13;;;13.48;100.00
71907;BME280;59781;52.090;5.030;2023-07-22T01:36:50;101351.09;;;13.31;100.00
71907;BME280;59781;52.090;5.030;2023-07-22T01:39:17;101353.47;;;13.26;100.00
71907;BME280;59781;52.090;5.030;2023-07-22T01:41:44;101353.56;;;13.40;100.00
71907;BME280;59781;52.090;5.030;2023-07-22T01:44:10;101347.06;;;13.58;100.00
71907;BME280;59781;52.090;5.030;2023-07-22T01:46:39;101349.84;;;13.72;100.00
71907;BME280;59781;52.090;5.030;2023-07-22T01:49:10;101347.78;;;13.74;100.00
71907;BME280;59781;52.090;5.030;2023-07-22T01:51:38;101341.66;;;13.81;100.00
71907;BME280;59781;52.090;5.030;2023-07-22T01:54:05;101339.69;;;13.97;100.00
71907;BME280;59781;52.090;5.030;2023-07-22T01:56:32;101336.19;;;13.89;100.00
71907;BME280;59781;52.090;5.030;2023-07-22T01:58:58;101334.41;;;13.96;100.00
71907;BME280;59781;52.090;5.030;2023-07-22T02:01:24;101329.53;;;13.76;100.00
71907;BME280;59781;52.090;5.030;2023-07-22T02:03:49;101332.88;;;13.78;100.00
71907;BME280;59781;52.090;5.030;2023-07-22T02:06:15;101339.00;;;13.72;100.00
71907;BME280;59781;52.090;5.030;2023-07-22T02:08:41;101339.72;;;13.66;100.00
71907;BME280;59781;52.090;5.030;2023-07-22T02:11:08;101330.81;;;14.03;100.00
71907;BME280;59781;52.090;5.030;2023-07-22T02:13:35;101329.00;;;13.96;100.00
71907;BME280;59781;52.090;5.030;2023-07-22T02:16:01;101330.69;;;14.34;100.00
71907;BME280;59781;52.090;5.030;2023-07-22T02:18:27;101322.66;;;13.89;100.00
71907;BME280;59781;52.090;5.030;2023-07-22T02:20:54;101332.63;;;13.88;100.00
71907;BME280;59781;52.090;5.030;2023-07-22T02:23:21;101325.34;;;13.66;100.00
71907;BME280;59781;52.090;5.030;2023-07-22T02:25:51;101321.63;;;13.67;100.00
71907;BME280;59781;52.090;5.030;2023-07-22T02:28:19;101321.19;;;13.55;100.00
71907;BME280;59781;52.090;5.030;2023-07-22T02:30:48;101319.91;;;13.43;100.00
71907;BME280;59781;52.090;5.030;2023-07-22T02:33:15;101313.59;;;13.28;100.00
71907;BME280;59781;52.090;5.030;2023-07-22T02:35:41;101313.28;;;13.45;100.00
71907;BME280;59781;52.090;5.030;2023-07-22T02:38:07;101308.16;;;13.59;100.00
71907;BME280;59781;52.090;5.030;2023-07-22T02:40:39;101310.72;;;13.52;100.00
71907;BME280;59781;52.090;5.030;2023-07-22T02:43:04;101306.00;;;13.46;100.00
71907;BME280;59781;52.090;5.030;2023-07-22T02:45:33;101310.91;;;13.51;100.00
71907;BME280;59781;52.090;5.030;2023-07-22T02:47:58;101313.47;;;13.44;100.00
71907;BME280;59781;52.090;5.030;2023-07-22T02:50:25;101316.56;;;13.64;100.00
71907;BME280;59781;52.090;5.030;2023-07-22T02:52:51;101300.88;;;13.59;100.00
71907;BME280;59781;52.090;5.030;2023-07-22T02:55:18;101311.28;;;13.47;100.00
71907;BME280;59781;52.090;5.030;2023-07-22T02:57:45;101313.34;;;13.68;100.00
71907;BME280;59781;52.090;5.030;2023-07-22T03:00:13;101315.25;;;13.60;100.00
71907;BME280;59781;52.090;5.030;2023-07-22T03:02:43;101309.19;;;13.58;100.00
71907;BME280;59781;52.090;5.030;2023-07-22T03:05:09;101309.84;;;13.60;100.00
71907;BME280;59781;52.090;5.030;2023-07-22T03:07:37;101303.34;;;13.69;100.00
71907;BME280;59781;52.090;5.030;2023-07-22T03:10:05;101309.94;;;13.66;100.00
71907;BME280;59781;52.090;5.030;2023-07-22T03:12:31;101318.41;;;13.86;100.00
71907;BME280;59781;52.090;5.030;2023-07-22T03:14:57;101306.03;;;14.29;100.00
71907;BME280;59781;52.090;5.030;2023-07-22T03:17:23;101314.56;;;14.41;100.00
71907;BME280;59781;52.090;5.030;2023-07-22T03:19:49;101306.28;;;13.82;100.00
71907;BME280;59781;52.090;5.030;2023-07-22T03:22:16;101306.00;;;13.77;100.00
71907;BME280;59781;52.090;5.030;2023-07-22T03:24:43;101313.13;;;13.93;100.00
71907;BME280;59781;52.090;5.030;2023-07-22T03:27:10;101309.97;;;13.89;100.00
71907;BME280;59781;52.090;5.030;2023-07-22T03:29:36;101304.97;;;13.78;100.00
71907;BME280;59781;52.090;5.030;2023-07-22T03:32:03;101313.06;;;14.01;100.00
71907;BME280;59781;52.090;5.030;2023-07-22T03:34:30;101308.81;;;13.84;100.00
71907;BME280;59781;52.090;5.030;2023-07-22T03:36:57;101311.69;;;13.82;100.00
71907;BME280;59781;52.090;5.030;2023-07-22T03:39:23;101320.72;;;13.74;100.00
71907;BME280;59781;52.090;5.030;2023-07-22T03:41:48;101312.41;;;13.76;100.00
71907;BME280;59781;52.090;5.030;2023-07-22T03:44:14;101310.66;;;13.83;100.00
71907;BME280;59781;52.090;5.030;2023-07-22T03:46:40;101316.50;;;13.95;100.00
71907;BME280;59781;52.090;5.030;2023-07-22T03:49:05;101316.03;;;13.91;100.00
71907;BME280;59781;52.090;5.030;2023-07-22T03:51:33;101323.44;;;13.97;100.00
71907;BME280;59781;52.090;5.030;2023-07-22T03:57:32;101311.75;;;13.97;100.00
71907;BME280;59781;52.090;5.030;2023-07-22T03:59:58;101317.88;;;13.91;100.00
71907;BME280;59781;52.090;5.030;2023-07-22T04:02:24;101320.72;;;13.97;100.00
71907;BME280;59781;52.090;5.030;2023-07-22T04:04:51;101318.84;;;13.75;100.00
71907;BME280;59781;52.090;5.030;2023-07-22T04:07:21;101322.94;;;14.31;100.00
71907;BME280;59781;52.090;5.030;2023-07-22T04:09:47;101326.81;;;14.14;100.00
71907;BME280;59781;52.090;5.030;2023-07-22T04:12:14;101327.91;;;14.05;100.00
71907;BME280;59781;52.090;5.030;2023-07-22T04:14:39;101328.16;;;13.95;100.00
71907;BME280;59781;52.090;5.030;2023-07-22T04:17:05;101327.41;;;14.24;100.00
71907;BME280;59781;52.090;5.030;2023-07-22T04:19:31;101321.41;;;14.14;100.00
71907;BME280;59781;52.090;5.030;2023-07-22T04:21:57;101315.22;;;14.05;100.00
71907;BME280;59781;52.090;5.030;2023-07-22T04:24:23;101323.66;;;14.11;100.00
71907;BME280;59781;52.090;5.030;2023-07-22T04:26:50;101326.59;;;14.01;100.00
71907;BME280;59781;52.090;5.030;2023-07-22T04:29:16;101314.09;;;14.00;100.00
71907;BME280;59781;52.090;5.030;2023-07-22T04:31:42;101319.28;;;14.24;100.00
71907;BME280;59781;52.090;5.030;2023-07-22T04:34:08;101325.91;;;14.07;100.00
71907;BME280;59781;52.090;5.030;2023-07-22T04:36:35;101322.19;;;14.23;100.00
71907;BME280;59781;52.090;5.030;2023-07-22T04:39:02;101316.69;;;14.31;100.00
71907;BME280;59781;52.090;5.030;2023-07-22T04:41:30;101312.56;;;14.35;100.00
71907;BME280;59781;52.090;5.030;2023-07-22T04:43:57;101322.94;;;14.17;100.00
71907;BME280;59781;52.090;5.030;2023-07-22T04:46:24;101319.78;;;14.28;100.00
71907;BME280;59781;52.090;5.030;2023-07-22T04:48:53;101314.31;;;14.51;100.00
71907;BME280;59781;52.090;5.030;2023-07-22T04:51:20;101312.91;;;14.55;100.00
71907;BME280;59781;52.090;5.030;2023-07-22T04:53:46;101310.13;;;14.48;100.00
71907;BME280;59781;52.090;5.030;2023-07-22T04:56:11;101310.59;;;14.81;100.00
71907;BME280;59781;52.090;5.030;2023-07-22T04:58:37;101314.81;;;14.69;100.00
71907;BME280;59781;52.090;5.030;2023-07-22T05:01:04;101321.25;;;14.83;100.00
71907;BME280;59781;52.090;5.030;2023-07-22T05:03:30;101315.34;;;14.94;100.00
71907;BME280;59781;52.090;5.030;2023-07-22T05:05:56;101310.13;;;15.07;100.00
71907;BME280;59781;52.090;5.030;2023-07-22T05:08:23;101306.38;;;15.08;100.00
71907;BME280;59781;52.090;5.030;2023-07-22T05:10:49;101303.81;;;15.21;100.00
71907;BME280;59781;52.090;5.030;2023-07-22T05:13:15;101315.00;;;15.33;100.00
71907;BME280;59781;52.090;5.030;2023-07-22T05:15:41;101316.88;;;14.97;100.00
71907;BME280;59781;52.090;5.030;2023-07-22T05:18:07;101315.16;;;15.10;100.00
71907;BME280;59781;52.090;5.030;2023-07-22T05:20:33;101314.00;;;15.34;100.00
71907;BME280;59781;52.090;5.030;2023-07-22T05:22:58;101311.25;;;15.64;100.00
71907;BME280;59781;52.090;5.030;2023-07-22T05:25:24;101305.63;;;15.50;100.00
71907;BME280;59781;52.090;5.030;2023-07-22T05:27:50;101312.69;;;15.30;100.00
71907;BME280;59781;52.090;5.030;2023-07-22T05:30:15;101324.31;;;15.24;100.00
71907;BME280;59781;52.090;5.030;2023-07-22T05:32:41;101328.25;;;15.58;100.00
71907;BME280;59781;52.090;5.030;2023-07-22T05:35:07;101316.34;;;15.59;100.00
71907;BME280;59781;52.090;5.030;2023-07-22T05:37:34;101315.84;;;15.85;100.00
71907;BME280;59781;52.090;5.030;2023-07-22T05:39:59;101318.63;;;15.55;100.00
71907;BME280;59781;52.090;5.030;2023-07-22T05:42:26;101311.56;;;15.75;100.00
71907;BME280;59781;52.090;5.030;2023-07-22T05:44:54;101320.03;;;15.66;100.00
71907;BME280;59781;52.090;5.030;2023-07-22T05:47:22;101321.34;;;15.55;100.00
71907;BME280;59781;52.090;5.030;2023-07-22T05:49:47;101315.25;;;15.89;100.00
71907;BME280;59781;52.090;5.030;2023-07-22T05:52:13;101309.06;;;16.02;100.00
71907;BME280;59781;52.090;5.030;2023-07-22T05:54:39;101313.03;;;15.99;100.00
71907;BME280;59781;52.090;5.030;2023-07-22T05:57:05;101310.19;;;15.86;100.00
71907;BME280;59781;52.090;5.030;2023-07-22T05:59:31;101313.25;;;15.76;100.00
71907;BME280;59781;52.090;5.030;2023-07-22T06:01:57;101314.25;;;16.18;100.00
71907;BME280;59781;52.090;5.030;2023-07-22T06:04:22;101320.53;;;16.19;100.00
71907;BME280;59781;52.090;5.030;2023-07-22T06:06:48;101312.75;;;16.16;100.00
71907;BME280;59781;52.090;5.030;2023-07-22T06:09:14;101311.97;;;16.50;100.00
71907;BME280;59781;52.090;5.030;2023-07-22T06:11:39;101309.75;;;16.60;100.00
71907;BME280;59781;52.090;5.030;2023-07-22T06:14:05;101306.44;;;16.64;100.00
71907;BME280;59781;52.090;5.030;2023-07-22T06:16:32;101303.66;;;16.86;100.00
71907;BME280;59781;52.090;5.030;2023-07-22T06:18:57;101300.72;;;16.87;100.00
71907;BME280;59781;52.090;5.030;2023-07-22T06:21:23;101299.19;;;17.13;100.00
71907;BME280;59781;52.090;5.030;2023-07-22T06:23:50;101296.94;;;17.30;100.00
71907;BME280;59781;52.090;5.030;2023-07-22T06:26:15;101295.38;;;17.07;100.00
71907;BME280;59781;52.090;5.030;2023-07-22T06:28:41;101295.84;;;17.17;100.00
71907;BME280;59781;52.090;5.030;2023-07-22T06:31:07;101278.53;;;17.38;100.00
71907;BME280;59781;52.090;5.030;2023-07-22T06:33:33;101282.88;;;17.13;100.00
71907;BME280;59781;52.090;5.030;2023-07-22T06:35:59;101287.34;;;17.47;100.00
71907;BME280;59781;52.090;5.030;2023-07-22T06:38:24;101288.31;;;17.19;100.00
71907;BME280;59781;52.090;5.030;2023-07-22T06:40:52;101282.88;;;17.19;100.00
71907;BME280;59781;52.090;5.030;2023-07-22T06:43:19;101284.88;;;17.65;100.00
71907;BME280;59781;52.090;5.030;2023-07-22T06:45:44;101287.28;;;17.27;100.00
71907;BME280;59781;52.090;5.030;2023-07-22T06:48:10;101291.78;;;17.55;100.00
71907;BME280;59781;52.090;5.030;2023-07-22T06:50:36;101284.47;;;17.62;100.00
71907;BME280;59781;52.090;5.030;2023-07-22T06:53:02;101277.47;;;17.39;100.00
71907;BME280;59781;52.090;5.030;2023-07-22T06:55:27;101277.59;;;17.05;100.00
71907;BME280;59781;52.090;5.030;2023-07-22T06:57:55;101288.00;;;17.42;100.00
71907;BME280;59781;52.090;5.030;2023-07-22T07:00:22;101274.31;;;17.29;100.00
71907;BME280;59781;52.090;5.030;2023-07-22T07:02:47;101272.47;;;17.49;100.00
71907;BME280;59781;52.090;5.030;2023-07-22T07:05:13;101274.03;;;17.72;100.00
71907;BME280;59781;52.090;5.030;2023-07-22T07:07:39;101274.53;;;17.28;100.00
71907;BME280;59781;52.090;5.030;2023-07-22T07:10:06;101262.63;;;17.48;100.00
71907;BME280;59781;52.090;5.030;2023-07-22T07:12:32;101277.13;;;17.62;100.00
71907;BME280;59781;52.090;5.030;2023-07-22T07:14:58;101274.19;;;17.57;100.00
71907;BME280;59781;52.090;5.030;2023-07-22T07:17:23;101269.44;;;17.86;100.00
71907;BME280;59781;52.090;5.030;2023-07-22T07:19:49;101272.81;;;18.01;100.00
71907;BME280;59781;52.090;5.030;2023-07-22T07:22:15;101268.38;;;18.33;100.00
71907;BME280;59781;52.090;5.030;2023-07-22T07:24:40;101267.28;;;18.60;100.00
71907;BME280;59781;52.090;5.030;2023-07-22T07:27:06;101270.88;;;18.34;100.00
71907;BME280;59781;52.090;5.030;2023-07-22T07:29:32;101276.34;;;18.34;100.00
71907;BME280;59781;52.090;5.030;2023-07-22T07:31:57;101266.72;;;18.32;100.00
71907;BME280;59781;52.090;5.030;2023-07-22T07:34:23;101267.88;;;18.76;100.00
71907;BME280;59781;52.090;5.030;2023-07-22T07:36:49;101266.25;;;18.68;100.00
71907;BME280;59781;52.090;5.030;2023-07-22T07:39:14;101262.41;;;18.89;100.00
71907;BME280;59781;52.090;5.030;2023-07-22T07:41:40;101266.72;;;19.10;100.00
71907;BME280;59781;52.090;5.030;2023-07-22T07:44:06;101260.22;;;19.04;100.00
71907;BME280;59781;52.090;5.030;2023-07-22T07:46:32;101260.59;;;19.14;100.00
71907;BME280;59781;52.090;5.030;2023-07-22T07:48:59;101255.38;;;19.13;100.00
71907;BME280;59781;52.090;5.030;2023-07-22T07:51:27;101257.38;;;19.31;100.00
71907;BME280;59781;52.090;5.030;2023-07-22T07:53:56;101257.91;;;19.46;100.00
71907;BME280;59781;52.090;5.030;2023-07-22T07:56:24;101251.22;;;19.42;100.00
71907;BME280;59781;52.090;5.030;2023-07-22T07:58:52;101261.09;;;19.74;100.00
71907;BME280;59781;52.090;5.030;2023-07-22T08:01:18;101251.25;;;19.98;100.00
71907;BME280;59781;52.090;5.030;2023-07-22T08:03:44;101242.66;;;19.95;100.00
71907;BME280;59781;52.090;5.030;2023-07-22T08:06:10;101245.50;;;19.50;100.00
71907;BME280;59781;52.090;5.030;2023-07-22T08:08:37;101252.53;;;19.33;100.00
71907;BME280;59781;52.090;5.030;2023-07-22T08:11:05;101242.75;;;19.57;100.00
71907;BME280;59781;52.090;5.030;2023-07-22T08:13:36;101240.69;;;19.45;100.00
71907;BME280;59781;52.090;5.030;2023-07-22T08:16:11;101244.00;;;20.11;100.00
71907;BME280;59781;52.090;5.030;2023-07-22T08:18:38;101246.44;;;19.94;100.00
71907;BME280;59781;52.090;5.030;2023-07-22T08:21:05;101253.88;;;19.87;100.00
71907;BME280;59781;52.090;5.030;2023-07-22T08:23:32;101251.00;;;20.25;100.00
71907;BME280;59781;52.090;5.030;2023-07-22T08:25:58;101236.16;;;20.39;100.00
71907;BME280;59781;52.090;5.030;2023-07-22T08:28:24;101246.44;;;20.62;100.00
71907;BME280;59781;52.090;5.030;2023-07-22T08:30:50;101230.19;;;20.49;100.00
71907;BME280;59781;52.090;5.030;2023-07-22T08:33:19;101237.09;;;20.88;100.00
71907;BME280;59781;52.090;5.030;2023-07-22T08:35:45;101239.81;;;20.08;100.00
71907;BME280;59781;52.090;5.030;2023-07-22T08:38:13;101230.53;;;21.07;100.00
71907;BME280;59781;52.090;5.030;2023-07-22T08:40:40;101235.38;;;20.75;100.00
71907;BME280;59781;52.090;5.030;2023-07-22T08:43:09;101232.47;;;20.70;100.00
71907;BME280;59781;52.090;5.030;2023-07-22T08:45:38;101230.13;;;20.55;100.00
71907;BME280;59781;52.090;5.030;2023-07-22T08:48:06;101230.78;;;20.51;100.00
71907;BME280;59781;52.090;5.030;2023-07-22T08:50:54;101229.66;;;20.77;100.00
71907;BME280;59781;52.090;5.030;2023-07-22T08:53:26;101233.28;;;20.52;100.00
71907;BME280;59781;52.090;5.030;2023-07-22T08:55:53;101229.63;;;20.40;100.00
71907;BME280;59781;52.090;5.030;2023-07-22T08:58:19;101234.84;;;20.85;100.00
71907;BME280;59781;52.090;5.030;2023-07-22T09:00:47;101226.84;;;20.65;100.00
71907;BME280;59781;52.090;5.030;2023-07-22T09:03:14;101216.66;;;21.20;100.00
71907;BME280;59781;52.090;5.030;2023-07-22T09:05:42;101217.06;;;21.66;100.00
71907;BME280;59781;52.090;5.030;2023-07-22T09:08:09;101218.00;;;20.81;100.00
71907;BME280;59781;52.090;5.030;2023-07-22T09:10:35;101219.00;;;20.50;100.00
71907;BME280;59781;52.090;5.030;2023-07-22T09:13:03;101217.66;;;20.59;100.00
71907;BME280;59781;52.090;5.030;2023-07-22T09:15:29;101217.00;;;20.39;100.00
71907;BME280;59781;52.090;5.030;2023-07-22T09:17:57;101226.06;;;20.15;100.00
71907;BME280;59781;52.090;5.030;2023-07-22T09:20:22;101221.94;;;19.87;100.00
71907;BME280;59781;52.090;5.030;2023-07-22T09:22:51;101228.09;;;20.01;100.00
71907;BME280;59781;52.090;5.030;2023-07-22T09:25:19;101225.75;;;19.80;100.00
71907;BME280;59781;52.090;5.030;2023-07-22T09:27:52;101229.13;;;20.07;100.00
71907;BME280;59781;52.090;5.030;2023-07-22T09:32:54;101229.34;;;20.23;100.00
71907;BME280;59781;52.090;5.030;2023-07-22T09:35:29;101226.94;;;20.33;100.00
71907;BME280;59781;52.090;5.030;2023-07-22T09:38:10;101221.59;;;20.20;100.00
71907;BME280;59781;52.090;5.030;2023-07-22T09:40:35;101224.78;;;20.60;100.00
71907;BME280;59781;52.090;5.030;2023-07-22T09:43:02;101207.78;;;20.58;100.00
71907;BME280;59781;52.090;5.030;2023-07-22T09:45:30;101208.06;;;20.87;100.00
71907;BME280;59781;52.090;5.030;2023-07-22T09:47:58;101215.38;;;20.56;100.00
71907;BME280;59781;52.090;5.030;2023-07-22T09:50:25;101216.81;;;20.77;100.00
71907;BME280;59781;52.090;5.030;2023-07-22T09:52:57;101208.19;;;20.92;100.00
71907;BME280;59781;52.090;5.030;2023-07-22T09:55:26;101207.44;;;21.33;100.00
71907;BME280;59781;52.090;5.030;2023-07-22T09:57:58;101197.63;;;21.56;100.00
71907;BME280;59781;52.090;5.030;2023-07-22T10:00:34;101198.88;;;21.95;100.00
71907;BME280;59781;52.090;5.030;2023-07-22T10:03:03;101198.66;;;22.20;100.00
71907;BME280;59781;52.090;5.030;2023-07-22T10:05:35;101201.56;;;21.71;100.00
71907;BME280;59781;52.090;5.030;2023-07-22T10:08:05;101199.53;;;21.25;100.00
71907;BME280;59781;52.090;5.030;2023-07-22T10:10:39;101210.19;;;20.48;100.00
71907;BME280;59781;52.090;5.030;2023-07-22T10:13:09;101210.22;;;20.67;100.00
71907;BME280;59781;52.090;5.030;2023-07-22T10:15:36;101207.84;;;20.70;100.00
71907;BME280;59781;52.090;5.030;2023-07-22T10:18:04;101210.50;;;20.77;100.00
71907;BME280;59781;52.090;5.030;2023-07-22T10:20:33;101209.91;;;20.31;100.00
71907;BME280;59781;52.090;5.030;2023-07-22T10:23:02;101206.19;;;20.08;100.00
71907;BME280;59781;52.090;5.030;2023-07-22T10:25:29;101212.06;;;20.04;100.00
71907;BME280;59781;52.090;5.030;2023-07-22T10:27:56;101217.84;;;19.96;100.00
71907;BME280;59781;52.090;5.030;2023-07-22T10:30:21;101213.03;;;19.92;100.00
71907;BME280;59781;52.090;5.030;2023-07-22T10:32:52;101216.03;;;19.84;100.00
71907;BME280;59781;52.090;5.030;2023-07-22T10:38:06;101217.53;;;19.86;100.00
71907;BME280;59781;52.090;5.030;2023-07-22T10:40:45;101228.00;;;19.89;100.00
71907;BME280;59781;52.090;5.030;2023-07-22T10:43:16;101239.03;;;19.76;100.00
71907;BME280;59781;52.090;5.030;2023-07-22T10:45:56;101234.03;;;19.66;100.00
71907;BME280;59781;52.090;5.030;2023-07-22T10:48:34;101249.59;;;19.66;100.00
71907;BME280;59781;52.090;5.030;2023-07-22T10:51:20;101257.03;;;19.14;100.00
71907;BME280;59781;52.090;5.030;2023-07-22T10:53:47;101257.63;;;18.65;100.00
71907;BME280;59781;52.090;5.030;2023-07-22T10:56:14;101247.56;;;18.52;100.00
71907;BME280;59781;52.090;5.030;2023-07-22T11:11:54;101253.44;;;18.62;100.00
71907;BME280;59781;52.090;5.030;2023-07-22T11:15:01;101249.00;;;18.81;100.00
71907;BME280;59781;52.090;5.030;2023-07-22T11:17:31;101238.72;;;19.21;100.00
71907;BME280;59781;52.090;5.030;2023-07-22T11:20:00;101239.44;;;19.41;100.00
71907;BME280;59781;52.090;5.030;2023-07-22T11:22:27;101244.59;;;19.63;100.00
71907;BME280;59781;52.090;5.030;2023-07-22T11:24:56;101225.50;;;19.88;100.00
71907;BME280;59781;52.090;5.030;2023-07-22T11:27:24;101216.97;;;19.77;100.00
71907;BME280;59781;52.090;5.030;2023-07-22T11:29:49;101220.38;;;19.35;100.00
71907;BME280;59781;52.090;5.030;2023-07-22T11:32:16;101220.97;;;19.37;100.00
71907;BME280;59781;52.090;5.030;2023-07-22T11:34:44;101214.44;;;19.06;100.00
71907;BME280;59781;52.090;5.030;2023-07-22T11:37:11;101218.41;;;19.10;100.00
71907;BME280;59781;52.090;5.030;2023-07-22T11:39:36;101218.88;;;19.01;100.00
71907;BME280;59781;52.090;5.030;2023-07-22T11:42:04;101214.13;;;18.83;100.00
71907;BME280;59781;52.090;5.030;2023-07-22T11:44:31;101208.50;;;19.16;100.00
71907;BME280;59781;52.090;5.030;2023-07-22T11:47:05;101209.22;;;19.36;100.00
71907;BME280;59781;52.090;5.030;2023-07-22T11:49:40;101205.06;;;19.90;100.00
71907;BME280;59781;52.090;5.030;2023-07-22T11:52:11;101188.50;;;19.60;100.00
71907;BME280;59781;52.090;5.030;2023-07-22T11:54:44;101202.31;;;19.34;100.00
71907;BME280;59781;52.090;5.030;2023-07-22T11:57:14;101201.94;;;19.62;100.00
71907;BME280;59781;52.090;5.030;2023-07-22T11:59:47;101202.63;;;19.51;100.00
71907;BME280;59781;52.090;5.030;2023-07-22T12:02:18;101193.88;;;20.17;100.00
71907;BME280;59781;52.090;5.030;2023-07-22T12:07:36;101209.91;;;19.63;100.00
71907;BME280;59781;52.090;5.030;2023-07-22T12:10:05;101201.28;;;19.91;100.00
71907;BME280;59781;52.090;5.030;2023-07-22T12:12:36;101205.53;;;19.87;100.00
71907;BME280;59781;52.090;5.030;2023-07-22T12:17:48;101203.63;;;19.88;100.00
71907;BME280;59781;52.090;5.030;2023-07-22T12:20:18;101200.59;;;19.71;100.00
71907;BME280;59781;52.090;5.030;2023-07-22T12:22:44;101196.03;;;19.90;100.00
71907;BME280;59781;52.090;5.030;2023-07-22T12:25:10;101196.44;;;20.12;100.00
71907;BME280;59781;52.090;5.030;2023-07-22T12:27:37;101191.47;;;20.82;100.00
71907;BME280;59781;52.090;5.030;2023-07-22T12:30:04;101184.19;;;21.66;100.00
71907;BME280;59781;52.090;5.030;2023-07-22T12:32:49;101175.88;;;21.42;100.00
71907;BME280;59781;52.090;5.030;2023-07-22T12:35:15;101174.34;;;21.35;100.00
71907;BME280;59781;52.090;5.030;2023-07-22T12:37:41;101180.50;;;21.30;100.00
71907;BME280;59781;52.090;5.030;2023-07-22T12:40:07;101197.69;;;20.89;100.00
71907;BME280;59781;52.090;5.030;2023-07-22T12:42:36;101200.03;;;20.30;100.00
71907;BME280;59781;52.090;5.030;2023-07-22T12:45:03;101195.09;;;20.94;100.00
71907;BME280;59781;52.090;5.030;2023-07-22T12:47:30;101200.94;;;21.16;100.00
71907;BME280;59781;52.090;5.030;2023-07-22T12:49:55;101199.59;;;20.88;100.00
71907;BME280;59781;52.090;5.030;2023-07-22T12:52:21;101195.16;;;20.76;100.00
71907;BME280;59781;52.090;5.030;2023-07-22T12:54:46;101196.88;;;20.88;100.00
71907;BME280;59781;52.090;5.030;2023-07-22T12:57:12;101194.44;;;20.44;100.00
71907;BME280;59781;52.090;5.030;2023-07-22T12:59:38;101201.03;;;20.18;100.00
71907;BME280;59781;52.090;5.030;2023-07-22T13:02:03;101209.13;;;20.06;100.00
71907;BME280;59781;52.090;5.030;2023-07-22T13:04:29;101204.09;;;20.03;100.00
71907;BME280;59781;52.090;5.030;2023-07-22T13:06:55;101214.03;;;19.72;100.00
71907;BME280;59781;52.090;5.030;2023-07-22T13:09:20;101221.28;;;19.60;100.00